Time;durP1;ratioP1;P1;durP2;ratioP2;P2;SDS_P1;SDS_P2;PMS_P1;PMS_P2;Temp;Humidity;BMP_temperature;BMP_pressure;BME280_temperature;BME280_humidity;BME280_pressure;Samples;Min_cycle;Max_cycle;Signal;HPM_P1;HPM_P2
2024/02/07 00:01:31;;;;;;;;;;;16.30;70.20;;;;;;5013326;28;20052;-70
2024/02/07 00:03:59;;;;;;;;;;;16.40;70.70;;;;;;5012808;28;19922;-70
2024/02/07 00:06:25;;;;;;;;;;;16.30;70.20;;;;;;5013080;28;19914;-70
2024/02/07 00:08:51;;;;;;;;;;;16.40;70.80;;;;;;5013091;28;20441;-70
2024/02/07 00:11:16;;;;;;;;;;;16.00;70.40;;;;;;5013078;28;19959;-69
2024/02/07 00:13:43;;;;;;;;;;;16.30;70.30;;;;;;5013090;28;20004;-69
2024/02/07 00:16:09;;;;;;;;;;;16.40;70.30;;;;;;5012893;28;19945;-70
2024/02/07 00:18:34;;;;;;;;;;;16.30;70.60;;;;;;5012495;28;19909;-70
2024/02/07 00:21:00;;;;;;;;;;;16.40;70.40;;;;;;5012864;28;19909;-70
2024/02/07 00:23:25;;;;;;;;;;;16.40;70.60;;;;;;5011590;28;19925;-70
2024/02/07 00:25:51;;;;;;;;;;;16.40;70.30;;;;;;5012842;28;19948;-69
2024/02/07 00:28:16;;;;;;;;;;;16.40;70.00;;;;;;5013270;28;19927;-70
2024/02/07 00:30:42;;;;;;;;;;;16.30;70.30;;;;;;5012831;28;19910;-70
2024/02/07 00:33:08;;;;;;;;;;;16.40;70.20;;;;;;5012997;28;20260;-70
2024/02/07 00:35:33;;;;;;;;;;;16.30;70.10;;;;;;5016146;28;19910;-70
2024/02/07 00:37:58;;;;;;;;;;;16.30;70.00;;;;;;5016768;28;19916;-70
2024/02/07 00:40:24;;;;;;;;;;;16.30;70.00;;;;;;5016808;28;19948;-69
2024/02/07 00:42:51;;;;;;;;;;;16.30;69.90;;;;;;5016775;28;19921;-70
2024/02/07 00:45:16;;;;;;;;;;;16.40;69.80;;;;;;5016939;28;19913;-70
2024/02/07 00:47:42;;;;;;;;;;;16.30;69.80;;;;;;5016650;28;19917;-70
2024/02/07 00:50:07;;;;;;;;;;;16.30;69.90;;;;;;5016553;28;19916;-70
2024/02/07 00:52:33;;;;;;;;;;;16.30;68.30;;;;;;5016576;28;19914;-70
2024/02/07 00:54:58;;;;;;;;;;;16.30;70.20;;;;;;5016562;28;20384;-70
2024/02/07 00:57:24;;;;;;;;;;;16.40;69.50;;;;;;5016963;28;19918;-70
2024/02/07 00:59:49;;;;;;;;;;;16.30;70.00;;;;;;5016444;28;19918;-70
2024/02/07 01:02:15;;;;;;;;;;;16.30;69.50;;;;;;5016204;28;19948;-70
2024/02/07 01:04:40;;;;;;;;;;;16.30;69.80;;;;;;5016092;28;19978;-70
2024/02/07 01:07:07;;;;;;;;;;;16.30;70.00;;;;;;5016303;28;19914;-70
2024/02/07 01:09:33;;;;;;;;;;;16.30;69.80;;;;;;5016537;28;19916;-70
2024/02/07 01:11:58;;;;;;;;;;;16.30;69.80;;;;;;5016136;28;20292;-69
2024/02/07 01:14:25;;;;;;;;;;;16.20;69.90;;;;;;5016092;28;20007;-70
2024/02/07 01:16:50;;;;;;;;;;;16.30;69.70;;;;;;5016035;28;19909;-70
2024/02/07 01:19:17;;;;;;;;;;;16.20;69.90;;;;;;5015984;28;19921;-70
2024/02/07 01:21:43;;;;;;;;;;;16.30;69.80;;;;;;5016020;28;19964;-69
2024/02/07 01:24:08;;;;;;;;;;;16.30;70.00;;;;;;5015821;28;20335;-70
2024/02/07 01:26:34;;;;;;;;;;;16.30;70.00;;;;;;5016195;28;20399;-70
2024/02/07 01:29:00;;;;;;;;;;;16.30;70.10;;;;;;5015807;28;19937;-70
2024/02/07 01:31:26;;;;;;;;;;;16.30;69.50;;;;;;5015732;28;19910;-70
2024/02/07 01:33:52;;;;;;;;;;;16.20;69.70;;;;;;5015763;28;19914;-70
2024/02/07 01:36:17;;;;;;;;;;;16.30;69.50;;;;;;5015753;28;19932;-70
2024/02/07 01:38:43;;;;;;;;;;;16.40;69.80;;;;;;5015767;28;19996;-69
2024/02/07 01:41:08;;;;;;;;;;;16.20;69.30;;;;;;5015648;28;19972;-70
2024/02/07 01:43:34;;;;;;;;;;;16.20;69.30;;;;;;5015730;28;20283;-69
2024/02/07 01:46:01;;;;;;;;;;;16.30;69.30;;;;;;5015386;28;19909;-70
2024/02/07 01:48:31;;;;;;;;;;;16.20;69.10;;;;;;5015791;28;19921;-69
2024/02/07 01:50:57;;;;;;;;;;;16.20;64.80;;;;;;5015742;28;19944;-69
2024/02/07 01:53:25;;;;;;;;;;;16.20;69.20;;;;;;5015618;28;20284;-70
2024/02/07 01:55:51;;;;;;;;;;;16.20;69.10;;;;;;5015838;28;19909;-70
2024/02/07 01:58:17;;;;;;;;;;;16.20;69.30;;;;;;5015666;28;19920;-69
2024/02/07 02:00:44;;;;;;;;;;;16.20;68.90;;;;;;5015221;28;19909;-70
2024/02/07 02:03:12;;;;;;;;;;;16.20;68.60;;;;;;5015169;28;19921;-70
2024/02/07 02:05:39;;;;;;;;;;;15.90;69.00;;;;;;5015333;28;19917;-70
2024/02/07 02:08:05;;;;;;;;;;;16.20;69.00;;;;;;5015576;28;19944;-69
2024/02/07 02:10:31;;;;;;;;;;;16.20;68.20;;;;;;5015121;28;19925;-70
2024/02/07 02:12:57;;;;;;;;;;;16.20;68.90;;;;;;5015155;28;19910;-69
2024/02/07 02:15:23;;;;;;;;;;;15.90;68.70;;;;;;5015029;28;19909;-69
2024/02/07 02:17:50;;;;;;;;;;;16.10;68.30;;;;;;5015295;28;20331;-70
2024/02/07 02:20:16;;;;;;;;;;;16.20;68.80;;;;;;5014997;28;19916;-70
2024/02/07 02:23:00;;;;;;;;;;;16.10;68.60;;;;;;5015310;28;19910;-70
2024/02/07 02:25:38;;;;;;;;;;;16.20;64.50;;;;;;5014894;28;20021;-69
2024/02/07 02:28:24;;;;;;;;;;;16.10;64.40;;;;;;5014837;28;20316;-70
2024/02/07 02:30:53;;;;;;;;;;;16.20;64.40;;;;;;5014681;28;20004;-69
2024/02/07 02:33:20;;;;;;;;;;;16.20;68.90;;;;;;5015033;28;20284;-69
2024/02/07 02:35:46;;;;;;;;;;;16.10;68.70;;;;;;5014699;28;19909;-69
2024/02/07 02:38:13;;;;;;;;;;;16.00;69.00;;;;;;5014570;28;19916;-69
2024/02/07 02:40:39;;;;;;;;;;;16.10;68.60;;;;;;5014518;28;19909;-70
2024/02/07 02:43:05;;;;;;;;;;;16.10;68.60;;;;;;5014502;28;19964;-69
2024/02/07 02:45:31;;;;;;;;;;;16.10;68.80;;;;;;5014497;28;19909;-70
2024/02/07 02:47:57;;;;;;;;;;;16.10;68.80;;;;;;5014468;28;19913;-69
2024/02/07 02:50:25;;;;;;;;;;;16.20;68.80;;;;;;5014396;28;19913;-70
2024/02/07 02:52:52;;;;;;;;;;;16.00;68.50;;;;;;5014907;28;19920;-70
2024/02/07 02:55:17;;;;;;;;;;;16.00;69.40;;;;;;5014267;28;19910;-69
2024/02/07 02:57:45;;;;;;;;;;;16.00;68.50;;;;;;5013341;28;19945;-69
2024/02/07 03:00:13;;;;;;;;;;;16.00;68.50;;;;;;5014139;28;19909;-70
2024/02/07 03:02:46;;;;;;;;;;;16.10;68.10;;;;;;5013981;28;19910;-70
2024/02/07 03:08:05;;;;;;;;;;;16.00;67.70;;;;;;5020839;28;19958;-72
2024/02/07 03:10:33;;;;;;;;;;;16.00;68.60;;;;;;5014227;28;19910;-72
2024/02/07 03:13:00;;;;;;;;;;;16.10;68.50;;;;;;5014153;28;19956;-72
2024/02/07 03:15:27;;;;;;;;;;;16.00;68.50;;;;;;5014173;28;19945;-72
2024/02/07 03:17:53;;;;;;;;;;;16.00;68.40;;;;;;5014063;28;19917;-73
2024/02/07 03:20:19;;;;;;;;;;;16.00;68.00;;;;;;5014502;28;19910;-73
2024/02/07 03:22:45;;;;;;;;;;;16.00;68.80;;;;;;5013953;28;19922;-72
2024/02/07 03:25:16;;;;;;;;;;;16.00;68.60;;;;;;5013975;28;19910;-72
2024/02/07 03:27:44;;;;;;;;;;;16.00;68.60;;;;;;5013965;28;19909;-72
2024/02/07 03:30:11;;;;;;;;;;;15.90;68.60;;;;;;5014194;28;19916;-72
2024/02/07 03:32:38;;;;;;;;;;;15.90;68.20;;;;;;5013572;28;19921;-72
2024/02/07 03:35:04;;;;;;;;;;;15.90;68.50;;;;;;5013429;28;19967;-73
2024/02/07 03:37:31;;;;;;;;;;;15.90;67.00;;;;;;5013794;28;19953;-72
2024/02/07 03:39:57;;;;;;;;;;;15.90;68.20;;;;;;5013743;28;19913;-72
2024/02/07 03:42:23;;;;;;;;;;;15.90;68.40;;;;;;5013412;28;19917;-72
2024/02/07 03:44:58;;;;;;;;;;;15.80;68.10;;;;;;5013519;28;19917;-72
2024/02/07 03:47:43;;;;;;;;;;;16.00;68.10;;;;;;5012946;28;20222;-73
2024/02/07 03:50:15;;;;;;;;;;;15.90;68.50;;;;;;5013529;28;20699;-72
2024/02/07 03:52:55;;;;;;;;;;;16.00;68.30;;;;;;5013216;28;19924;-72
2024/02/07 03:55:21;;;;;;;;;;;15.90;68.30;;;;;;5013431;28;19913;-72
2024/02/07 03:57:48;;;;;;;;;;;15.90;68.80;;;;;;5013150;28;19913;-73
2024/02/07 04:00:14;;;;;;;;;;;15.90;68.60;;;;;;5013082;28;20368;-72
2024/02/07 04:02:40;;;;;;;;;;;15.80;67.80;;;;;;5013051;28;19964;-72
2024/02/07 04:05:10;;;;;;;;;;;15.90;68.60;;;;;;5013345;28;19921;-73
2024/02/07 04:07:36;;;;;;;;;;;16.00;67.80;;;;;;5013318;28;19941;-73
2024/02/07 04:10:03;;;;;;;;;;;15.80;68.50;;;;;;5013092;28;19932;-73
2024/02/07 05:17:34;;;;;;;;;;;15.80;68.80;;;;;;5012630;28;19910;-72
2024/02/07 05:20:00;;;;;;;;;;;15.90;69.40;;;;;;5013031;28;19910;-72
2024/02/07 05:22:26;;;;;;;;;;;15.80;69.60;;;;;;5016241;28;19914;-73
2024/02/07 05:24:52;;;;;;;;;;;15.90;69.50;;;;;;5015946;28;19918;-70
2024/02/07 05:27:18;;;;;;;;;;;15.90;69.70;;;;;;5016281;28;19917;-70
2024/02/07 05:29:44;;;;;;;;;;;15.90;69.70;;;;;;5016223;28;19932;-70
2024/02/07 05:32:11;;;;;;;;;;;15.90;69.60;;;;;;5016271;28;19933;-70
2024/02/07 05:34:37;;;;;;;;;;;15.90;69.70;;;;;;5015833;28;19913;-70
2024/02/07 05:37:03;;;;;;;;;;;15.90;69.70;;;;;;5015874;28;19914;-69
2024/02/07 05:39:31;;;;;;;;;;;15.90;69.20;;;;;;5016083;28;19917;-70
2024/02/07 05:41:58;;;;;;;;;;;15.90;69.80;;;;;;5016304;28;20011;-70
2024/02/07 05:44:23;;;;;;;;;;;15.90;70.00;;;;;;5015706;28;19972;-70
2024/02/07 05:46:49;;;;;;;;;;;15.80;69.60;;;;;;5015615;28;19913;-70
2024/02/07 05:49:14;;;;;;;;;;;15.80;69.40;;;;;;5015585;28;20284;-69
2024/02/07 05:51:40;;;;;;;;;;;15.90;69.60;;;;;;5015867;28;19917;-70
2024/02/07 05:54:07;;;;;;;;;;;15.80;69.50;;;;;;5015517;28;20020;-70
2024/02/07 05:56:33;;;;;;;;;;;15.90;69.80;;;;;;5015534;28;19935;-69
2024/02/07 05:58:59;;;;;;;;;;;15.90;69.60;;;;;;5015423;28;19917;-70
2024/02/07 06:01:24;;;;;;;;;;;15.60;68.90;;;;;;5015270;28;19917;-70
2024/02/07 06:03:50;;;;;;;;;;;15.80;69.50;;;;;;5015349;28;19928;-69
2024/02/07 06:06:19;;;;;;;;;;;15.90;69.60;;;;;;5015544;28;19917;-70
2024/02/07 06:08:47;;;;;;;;;;;15.80;69.60;;;;;;5015175;28;19916;-70
2024/02/07 06:11:13;;;;;;;;;;;15.90;69.00;;;;;;5015884;28;19909;-70
2024/02/07 06:13:39;;;;;;;;;;;15.90;69.70;;;;;;5015113;28;19969;-69
2024/02/07 06:16:04;;;;;;;;;;;15.80;69.40;;;;;;5015068;28;20367;-70
2024/02/07 06:18:30;;;;;;;;;;;15.80;69.20;;;;;;5015006;28;19910;-70
2024/02/07 06:20:55;;;;;;;;;;;15.80;69.50;;;;;;5015038;28;19982;-69
2024/02/07 06:23:21;;;;;;;;;;;15.90;69.60;;;;;;5014832;28;20400;-70
2024/02/07 06:25:47;;;;;;;;;;;15.90;69.70;;;;;;5014830;28;19921;-70
2024/02/07 06:28:13;;;;;;;;;;;15.80;69.70;;;;;;5014842;28;20387;-69
2024/02/07 06:30:38;;;;;;;;;;;15.70;69.20;;;;;;5014644;28;20308;-69
2024/02/07 06:33:04;;;;;;;;;;;15.80;69.50;;;;;;5013441;28;19909;-70
2024/02/07 06:35:29;;;;;;;;;;;15.80;68.80;;;;;;5014660;28;20004;-70
2024/02/07 06:37:55;;;;;;;;;;;16.10;69.60;;;;;;5014592;28;19964;-70
2024/02/07 06:40:20;;;;;;;;;;;15.80;69.60;;;;;;5014630;28;20284;-70
2024/02/07 06:42:45;;;;;;;;;;;15.70;69.30;;;;;;5014540;28;19910;-70
2024/02/07 06:45:11;;;;;;;;;;;15.80;69.20;;;;;;5014792;28;20280;-70
2024/02/07 06:47:37;;;;;;;;;;;15.90;69.50;;;;;;5014382;28;19913;-71
2024/02/07 06:50:03;;;;;;;;;;;15.80;69.40;;;;;;5014674;28;19909;-71
2024/02/07 06:52:29;;;;;;;;;;;15.80;69.30;;;;;;5014326;28;19924;-71
2024/02/07 06:54:55;;;;;;;;;;;15.60;69.40;;;;;;5014299;28;19910;-70
2024/02/07 06:57:21;;;;;;;;;;;15.70;69.20;;;;;;5014633;28;19910;-70
2024/02/07 06:59:47;;;;;;;;;;;15.80;69.30;;;;;;5014263;28;20005;-70
2024/02/07 07:02:12;;;;;;;;;;;15.80;68.80;;;;;;5014464;28;20008;-70
2024/02/07 07:04:38;;;;;;;;;;;15.80;69.40;;;;;;5013905;28;19928;-70
2024/02/07 07:07:04;;;;;;;;;;;15.80;69.20;;;;;;5014260;28;19909;-71
2024/02/07 07:09:30;;;;;;;;;;;15.80;69.60;;;;;;5014304;28;20275;-75
2024/02/07 07:11:56;;;;;;;;;;;15.70;69.40;;;;;;5014161;28;19914;-70
2024/02/07 07:14:22;;;;;;;;;;;15.80;69.30;;;;;;5014207;28;20319;-70
2024/02/07 07:16:48;;;;;;;;;;;15.80;69.40;;;;;;5013808;28;20004;-70
2024/02/07 07:19:13;;;;;;;;;;;15.80;69.50;;;;;;5012557;28;19945;-70
2024/02/07 07:21:39;;;;;;;;;;;15.70;69.40;;;;;;5013872;28;20000;-70
2024/02/07 07:24:05;;;;;;;;;;;15.70;69.10;;;;;;5013776;28;20026;-70
2024/02/07 07:26:31;;;;;;;;;;;15.80;68.60;;;;;;5013992;28;19910;-70
2024/02/07 07:28:58;;;;;;;;;;;15.70;69.50;;;;;;5013863;28;20360;-70
2024/02/07 07:31:25;;;;;;;;;;;15.70;69.50;;;;;;5013937;28;19910;-70
2024/02/07 07:33:51;;;;;;;;;;;15.70;69.90;;;;;;5013940;28;19910;-70
2024/02/07 07:36:17;;;;;;;;;;;15.70;69.50;;;;;;5012645;28;19920;-70
2024/02/07 07:38:42;;;;;;;;;;;15.80;69.60;;;;;;5013400;28;19909;-70
2024/02/07 07:41:07;;;;;;;;;;;15.70;69.80;;;;;;5013426;28;19910;-70
2024/02/07 07:43:33;;;;;;;;;;;15.80;69.60;;;;;;5012937;28;20319;-70
2024/02/07 07:45:59;;;;;;;;;;;15.70;69.50;;;;;;5013430;28;19940;-70
2024/02/07 07:48:25;;;;;;;;;;;15.70;69.70;;;;;;5013462;28;19909;-70
2024/02/07 07:50:50;;;;;;;;;;;15.70;69.60;;;;;;5013388;28;19909;-70
2024/02/07 07:53:16;;;;;;;;;;;15.70;69.50;;;;;;5013236;28;19910;-70
2024/02/07 07:55:41;;;;;;;;;;;15.70;69.60;;;;;;5013112;28;19909;-69
2024/02/07 07:58:07;;;;;;;;;;;15.70;70.10;;;;;;5013039;28;20343;-70
2024/02/07 08:00:34;;;;;;;;;;;15.70;69.40;;;;;;5013082;28;19910;-70
2024/02/07 08:02:59;;;;;;;;;;;15.70;69.10;;;;;;5013133;28;20288;-70
2024/02/07 08:05:25;;;;;;;;;;;15.70;69.40;;;;;;5013069;28;19909;-70
2024/02/07 08:07:50;;;;;;;;;;;15.70;69.60;;;;;;5012993;28;20000;-70
2024/02/07 08:10:16;;;;;;;;;;;15.70;69.50;;;;;;5013119;28;20531;-70
2024/02/07 08:12:42;;;;;;;;;;;15.70;69.40;;;;;;5013147;28;19984;-70
2024/02/07 08:15:08;;;;;;;;;;;15.70;69.50;;;;;;5013158;28;20291;-71
2024/02/07 08:17:33;;;;;;;;;;;15.70;69.20;;;;;;5012871;28;19916;-71
2024/02/07 08:19:59;;;;;;;;;;;15.70;69.40;;;;;;5012855;28;20304;-70
2024/02/07 08:22:24;;;;;;;;;;;15.70;69.50;;;;;;5012897;28;19909;-70
2024/02/07 08:24:52;;;;;;;;;;;15.70;69.40;;;;;;5012776;28;20314;-70
2024/02/07 08:27:17;;;;;;;;;;;15.60;69.10;;;;;;5012823;28;19914;-69
2024/02/07 08:29:43;;;;;;;;;;;15.60;69.10;;;;;;5012727;28;19944;-69
2024/02/07 08:32:08;;;;;;;;;;;15.70;69.20;;;;;;5013177;28;19910;-70
2024/02/07 08:34:33;;;;;;;;;;;15.60;69.20;;;;;;5012613;28;20323;-71
2024/02/07 08:36:59;;;;;;;;;;;15.70;69.10;;;;;;5012615;28;19910;-71
2024/02/07 08:39:25;;;;;;;;;;;15.70;69.10;;;;;;5012540;28;20283;-72
2024/02/07 08:41:50;;;;;;;;;;;15.60;69.30;;;;;;5012676;28;19909;-71
2024/02/07 08:44:16;;;;;;;;;;;15.70;69.50;;;;;;5012439;28;20025;-72
2024/02/07 08:46:43;;;;;;;;;;;15.70;69.30;;;;;;5012567;28;19956;-71
2024/02/07 08:49:09;;;;;;;;;;;15.70;69.10;;;;;;5012680;28;19910;-72
2024/02/07 08:51:35;;;;;;;;;;;15.70;69.40;;;;;;5012459;28;20284;-72
2024/02/07 08:54:03;;;;;;;;;;;15.60;69.20;;;;;;5012440;28;19914;-71
2024/02/07 08:56:28;;;;;;;;;;;15.60;69.10;;;;;;5015615;28;19917;-71
2024/02/07 08:58:54;;;;;;;;;;;15.70;69.00;;;;;;5018104;28;19909;-71
2024/02/07 09:01:20;;;;;;;;;;;15.60;69.10;;;;;;5016758;28;19909;-71
2024/02/07 09:03:46;;;;;;;;;;;15.60;68.60;;;;;;5016013;28;19921;-71
2024/02/07 09:06:11;;;;;;;;;;;15.70;69.10;;;;;;5016206;28;20331;-71
2024/02/07 09:08:36;;;;;;;;;;;15.70;69.20;;;;;;5016218;28;20016;-71
2024/02/07 09:11:02;;;;;;;;;;;15.60;69.00;;;;;;5016279;28;19953;-72
2024/02/07 09:13:27;;;;;;;;;;;15.70;68.70;;;;;;5016076;28;20367;-71
2024/02/07 09:15:53;;;;;;;;;;;15.60;69.20;;;;;;5015994;28;20368;-72
2024/02/07 09:18:19;;;;;;;;;;;15.50;68.90;;;;;;5015896;28;19916;-77
2024/02/07 09:20:44;;;;;;;;;;;15.60;68.80;;;;;;5015923;28;19909;-71
2024/02/07 09:23:09;;;;;;;;;;;15.60;69.40;;;;;;5015717;28;20386;-71
2024/02/07 09:25:35;;;;;;;;;;;15.60;68.80;;;;;;5016109;28;19909;-71
2024/02/07 09:28:01;;;;;;;;;;;15.60;68.80;;;;;;5014586;28;19987;-70
2024/02/07 09:30:26;;;;;;;;;;;15.60;69.00;;;;;;5015819;28;19939;-72
2024/02/07 09:32:52;;;;;;;;;;;15.70;68.90;;;;;;5018901;28;19909;-73
2024/02/07 09:35:17;;;;;;;;;;;15.70;68.30;;;;;;5016371;28;19933;-71
2024/02/07 09:37:43;;;;;;;;;;;15.70;68.70;;;;;;5015556;28;19917;-72
2024/02/07 09:40:08;;;;;;;;;;;15.70;68.90;;;;;;5015605;28;19956;-72
2024/02/07 09:42:37;;;;;;;;;;;15.60;67.40;;;;;;5015558;28;20451;-73
2024/02/07 09:45:02;;;;;;;;;;;15.70;68.60;;;;;;5015443;28;20012;-72
2024/02/07 09:47:30;;;;;;;;;;;15.60;67.90;;;;;;5015458;28;20363;-73
2024/02/07 09:49:55;;;;;;;;;;;15.70;69.00;;;;;;5015519;28;19918;-72
2024/02/07 09:52:23;;;;;;;;;;;15.70;68.40;;;;;;5015284;28;19980;-74
2024/02/07 09:54:51;;;;;;;;;;;15.90;69.20;;;;;;5015414;28;19910;-73
2024/02/07 09:57:17;;;;;;;;;;;15.70;68.70;;;;;;5015220;28;19914;-72
2024/02/07 09:59:43;;;;;;;;;;;15.70;68.90;;;;;;5013951;28;19917;-72
2024/02/07 10:02:10;;;;;;;;;;;15.70;68.40;;;;;;5015182;28;19910;-73
2024/02/07 10:04:37;;;;;;;;;;;15.60;68.80;;;;;;5014901;28;19929;-72
2024/02/07 10:07:09;;;;;;;;;;;15.60;69.00;;;;;;5014967;28;19921;-72
2024/02/07 10:09:35;;;;;;;;;;;15.70;68.30;;;;;;5015217;28;19909;-72
2024/02/07 10:12:01;;;;;;;;;;;15.60;68.70;;;;;;5015034;28;20443;-73
2024/02/07 10:14:27;;;;;;;;;;;15.70;68.80;;;;;;5014956;28;19917;-75
2024/02/07 10:16:52;;;;;;;;;;;15.70;69.10;;;;;;5014983;28;20051;-74
2024/02/07 10:19:18;;;;;;;;;;;15.60;68.60;;;;;;5014958;28;19972;-74
2024/02/07 10:21:43;;;;;;;;;;;15.60;68.80;;;;;;5014909;28;19917;-73
2024/02/07 10:24:09;;;;;;;;;;;15.70;68.70;;;;;;5013663;28;19917;-73
2024/02/07 10:26:34;;;;;;;;;;;15.60;68.50;;;;;;5014814;28;19910;-76
2024/02/07 10:29:01;;;;;;;;;;;15.70;69.00;;;;;;5014862;28;20288;-75
2024/02/07 10:31:27;;;;;;;;;;;15.60;68.90;;;;;;5014895;28;19913;-74
2024/02/07 10:33:54;;;;;;;;;;;15.60;68.60;;;;;;5015086;28;19916;-74
2024/02/07 10:36:23;;;;;;;;;;;15.70;68.90;;;;;;5014715;28;19941;-78
2024/02/07 10:38:50;;;;;;;;;;;15.60;64.40;;;;;;5014599;28;20331;-74
2024/02/07 10:41:16;;;;;;;;;;;15.70;69.10;;;;;;5014972;28;20372;-74
2024/02/07 10:43:41;;;;;;;;;;;15.60;68.90;;;;;;5014604;28;19925;-75
2024/02/07 10:46:10;;;;;;;;;;;15.70;68.60;;;;;;5014497;28;19917;-72
2024/02/07 10:48:36;;;;;;;;;;;15.70;68.80;;;;;;5014650;28;19913;-74
2024/02/07 10:51:02;;;;;;;;;;;15.70;68.70;;;;;;5014388;28;20044;-75
2024/02/07 10:53:28;;;;;;;;;;;15.60;68.60;;;;;;5014390;28;19940;-75
2024/02/07 10:55:57;;;;;;;;;;;15.60;68.80;;;;;;5014314;28;20287;-74
2024/02/07 10:58:24;;;;;;;;;;;15.70;68.80;;;;;;5014126;28;19909;-75
2024/02/07 11:00:53;;;;;;;;;;;15.70;68.70;;;;;;5014124;28;19910;-80
2024/02/07 11:03:19;;;;;;;;;;;15.60;68.40;;;;;;5013777;28;19921;-75
2024/02/07 11:05:45;;;;;;;;;;;15.70;69.10;;;;;;5014139;28;20291;-75
2024/02/07 11:08:11;;;;;;;;;;;15.70;68.80;;;;;;5014033;28;19914;-75
2024/02/07 11:10:37;;;;;;;;;;;15.70;68.70;;;;;;5014072;28;19914;-75
2024/02/07 11:13:03;;;;;;;;;;;15.60;68.90;;;;;;5013993;28;19952;-74
2024/02/07 11:15:28;;;;;;;;;;;15.60;68.10;;;;;;5013901;28;19945;-74
2024/02/07 11:17:54;;;;;;;;;;;15.70;68.40;;;;;;5013150;28;19913;-73
2024/02/07 11:20:19;;;;;;;;;;;15.80;68.60;;;;;;5013920;28;19910;-74
2024/02/07 11:22:49;;;;;;;;;;;15.50;68.60;;;;;;5013623;28;20379;-75
2024/02/07 11:25:16;;;;;;;;;;;15.80;68.50;;;;;;5014062;28;19920;-75
2024/02/07 11:27:42;;;;;;;;;;;15.80;68.60;;;;;;5013871;28;19997;-75
2024/02/07 11:30:11;;;;;;;;;;;15.80;68.30;;;;;;5013755;28;19952;-75
2024/02/07 11:32:40;;;;;;;;;;;15.90;64.00;;;;;;5013835;28;20394;-74
2024/02/07 11:35:09;;;;;;;;;;;16.00;68.50;;;;;;5013914;28;19910;-75
2024/02/07 11:37:35;;;;;;;;;;;15.90;63.70;;;;;;5013488;28;20328;-75
2024/02/07 11:40:05;;;;;;;;;;;16.00;68.40;;;;;;5013454;28;19916;-75
2024/02/07 11:42:35;;;;;;;;;;;16.00;63.50;;;;;;5013662;28;20261;-75
2024/02/07 11:45:02;;;;;;;;;;;16.00;67.80;;;;;;5013280;28;20356;-74
2024/02/07 11:47:30;;;;;;;;;;;16.00;68.10;;;;;;5013422;28;19917;-76
2024/02/07 11:50:05;;;;;;;;;;;16.10;67.70;;;;;;5013327;28;20075;-75
2024/02/07 11:52:32;;;;;;;;;;;16.20;63.20;;;;;;5013533;28;19910;-74
2024/02/07 11:55:01;;;;;;;;;;;16.20;67.50;;;;;;5013267;28;20319;-75
2024/02/07 11:57:27;;;;;;;;;;;16.30;63.20;;;;;;5011916;28;20007;-75
2024/02/07 11:59:52;;;;;;;;;;;16.20;67.60;;;;;;5013121;28;19976;-75
2024/02/07 12:02:18;;;;;;;;;;;16.20;67.30;;;;;;5013055;28;19909;-74
2024/02/07 12:04:44;;;;;;;;;;;16.30;67.80;;;;;;5013008;28;19967;-75
2024/02/07 12:07:11;;;;;;;;;;;16.30;67.90;;;;;;5013661;28;19917;-75
2024/02/07 12:09:36;;;;;;;;;;;16.20;67.90;;;;;;5013161;28;19917;-76
2024/02/07 12:12:02;;;;;;;;;;;16.20;67.80;;;;;;5013004;28;19933;-79
2024/02/07 12:14:28;;;;;;;;;;;16.30;67.90;;;;;;5013044;28;19910;-74
2024/02/07 12:16:54;;;;;;;;;;;16.30;67.80;;;;;;5013057;28;19963;-73
2024/02/07 12:19:19;;;;;;;;;;;16.30;68.00;;;;;;5013025;28;19916;-74
2024/02/07 12:21:46;;;;;;;;;;;16.20;68.00;;;;;;5013141;28;20328;-73
2024/02/07 12:24:13;;;;;;;;;;;16.40;68.20;;;;;;5012738;28;19917;-72
2024/02/07 12:26:39;;;;;;;;;;;16.30;68.20;;;;;;5012893;28;19916;-73
2024/02/07 12:29:06;;;;;;;;;;;16.30;68.20;;;;;;5013108;28;20358;-72
2024/02/07 12:31:33;;;;;;;;;;;16.40;68.00;;;;;;5013135;28;19910;-73
2024/02/07 12:33:59;;;;;;;;;;;16.40;68.50;;;;;;5013200;28;19945;-73
2024/02/07 12:36:24;;;;;;;;;;;16.40;68.20;;;;;;5012843;28;20366;-73
2024/02/07 12:38:50;;;;;;;;;;;16.40;68.00;;;;;;5013010;28;20275;-73
2024/02/07 12:41:16;;;;;;;;;;;16.40;68.20;;;;;;5013331;28;19910;-73
2024/02/07 12:43:43;;;;;;;;;;;16.40;68.10;;;;;;5012927;28;19917;-73
2024/02/07 12:46:09;;;;;;;;;;;16.50;68.60;;;;;;5012952;28;19935;-73
2024/02/07 12:48:35;;;;;;;;;;;16.50;68.30;;;;;;5012728;28;19909;-73
2024/02/07 12:51:02;;;;;;;;;;;16.50;68.30;;;;;;5012657;28;20384;-73
2024/02/07 12:53:27;;;;;;;;;;;16.40;68.30;;;;;;5013120;28;19913;-73
2024/02/07 12:55:53;;;;;;;;;;;16.50;68.40;;;;;;5012628;28;20013;-72
2024/02/07 12:58:19;;;;;;;;;;;16.40;68.30;;;;;;5012714;28;20279;-73
2024/02/07 13:00:44;;;;;;;;;;;16.50;68.70;;;;;;5012623;28;20443;-73
2024/02/07 13:03:10;;;;;;;;;;;16.50;67.90;;;;;;5012260;28;19921;-73
2024/02/07 13:05:36;;;;;;;;;;;16.50;68.40;;;;;;5012593;28;20390;-73
2024/02/07 13:08:02;;;;;;;;;;;16.50;68.70;;;;;;5012590;28;20450;-73
2024/02/07 13:10:29;;;;;;;;;;;16.50;68.50;;;;;;5012479;28;20334;-73
2024/02/07 13:12:54;;;;;;;;;;;16.60;68.40;;;;;;5012509;28;19955;-73
2024/02/07 13:15:20;;;;;;;;;;;16.50;68.50;;;;;;5012679;28;19910;-73
2024/02/07 13:17:46;;;;;;;;;;;16.60;68.30;;;;;;5012555;28;19916;-72
2024/02/07 13:20:12;;;;;;;;;;;16.70;68.30;;;;;;5012702;28;20327;-73
2024/02/07 13:22:38;;;;;;;;;;;16.70;68.10;;;;;;5012938;28;19909;-73
2024/02/07 13:25:07;;;;;;;;;;;16.70;68.10;;;;;;5012307;28;19972;-72
2024/02/07 13:27:33;;;;;;;;;;;16.60;63.90;;;;;;5012334;28;20004;-72
2024/02/07 13:29:58;;;;;;;;;;;16.70;68.10;;;;;;5012307;28;20383;-73
2024/02/07 13:32:24;;;;;;;;;;;16.60;68.60;;;;;;5012255;28;20415;-73
2024/02/07 13:34:51;;;;;;;;;;;16.70;68.50;;;;;;5012600;28;19914;-72
2024/02/07 13:37:16;;;;;;;;;;;16.70;68.50;;;;;;5010821;28;20025;-73
2024/02/07 13:39:42;;;;;;;;;;;16.60;68.70;;;;;;5012508;28;20066;-73
2024/02/07 13:42:08;;;;;;;;;;;16.60;68.70;;;;;;5014269;28;20292;-73
2024/02/07 13:44:34;;;;;;;;;;;16.60;68.60;;;;;;5015566;28;19917;-73
2024/02/07 13:47:01;;;;;;;;;;;16.60;68.80;;;;;;5015687;28;20360;-73
2024/02/07 13:49:27;;;;;;;;;;;16.60;68.80;;;;;;5016302;28;19966;-73
2024/02/07 13:51:53;;;;;;;;;;;16.50;69.10;;;;;;5015974;28;20381;-74
2024/02/07 13:54:19;;;;;;;;;;;16.60;69.10;;;;;;5015551;28;20044;-73
2024/02/07 13:56:44;;;;;;;;;;;16.50;68.80;;;;;;5015638;28;19910;-76
2024/02/07 13:59:10;;;;;;;;;;;16.50;69.00;;;;;;5015541;28;19914;-77
2024/02/07 14:01:36;;;;;;;;;;;16.60;68.40;;;;;;5015440;28;19913;-77
2024/02/07 14:04:03;;;;;;;;;;;16.50;69.20;;;;;;5015281;28;20358;-72
2024/02/07 14:06:29;;;;;;;;;;;16.50;68.80;;;;;;5015359;28;20280;-76
2024/02/07 14:08:54;;;;;;;;;;;16.60;68.90;;;;;;5015346;28;19916;-74
2024/02/07 14:11:20;;;;;;;;;;;16.50;68.90;;;;;;5015232;28;20285;-76
2024/02/07 14:13:46;;;;;;;;;;;16.50;68.60;;;;;;5015279;28;19956;-75
2024/02/07 14:16:11;;;;;;;;;;;16.50;68.70;;;;;;5015197;28;19909;-74
2024/02/07 14:18:37;;;;;;;;;;;16.60;68.90;;;;;;5015599;28;19914;-74
2024/02/07 14:21:03;;;;;;;;;;;16.60;68.80;;;;;;5015154;28;19918;-74
2024/02/07 14:23:29;;;;;;;;;;;16.50;68.60;;;;;;5014871;28;20372;-74
2024/02/07 14:25:55;;;;;;;;;;;16.50;68.90;;;;;;5014940;28;19917;-74
2024/02/07 14:28:21;;;;;;;;;;;16.50;69.10;;;;;;5015005;28;19917;-74
2024/02/07 14:30:47;;;;;;;;;;;16.50;69.10;;;;;;5014979;28;19914;-74
2024/02/07 14:33:13;;;;;;;;;;;16.40;68.80;;;;;;5014554;28;19916;-83
2024/02/07 14:35:40;;;;;;;;;;;16.50;69.10;;;;;;5014514;28;20394;-75
2024/02/07 14:38:06;;;;;;;;;;;16.50;64.80;;;;;;5014805;28;19913;-75
2024/02/07 14:40:31;;;;;;;;;;;16.40;69.10;;;;;;5014395;28;19909;-75
2024/02/07 14:42:57;;;;;;;;;;;16.50;69.50;;;;;;5014436;28;20308;-74
2024/02/07 14:45:22;;;;;;;;;;;16.50;69.10;;;;;;5014530;28;19916;-75
2024/02/07 14:47:48;;;;;;;;;;;16.40;68.90;;;;;;5014823;28;19941;-74
2024/02/07 14:50:13;;;;;;;;;;;16.50;69.00;;;;;;5014277;28;19933;-73
2024/02/07 14:52:39;;;;;;;;;;;16.40;68.70;;;;;;5013250;28;19910;-73
2024/02/07 14:55:05;;;;;;;;;;;16.40;69.10;;;;;;5014467;28;19909;-74
2024/02/07 14:57:31;;;;;;;;;;;16.40;67.50;;;;;;5014313;28;19914;-73
2024/02/07 14:59:57;;;;;;;;;;;16.50;68.80;;;;;;5014559;28;20000;-74
2024/02/07 15:02:24;;;;;;;;;;;16.50;68.30;;;;;;5012985;28;19909;-73
2024/02/07 15:04:51;;;;;;;;;;;16.40;68.80;;;;;;5014245;28;20279;-73
2024/02/07 15:07:17;;;;;;;;;;;16.50;68.50;;;;;;5013935;28;19921;-73
2024/02/07 15:09:42;;;;;;;;;;;16.40;68.70;;;;;;5013999;28;19909;-73
2024/02/07 15:12:08;;;;;;;;;;;16.40;68.60;;;;;;5014154;28;19909;-75
2024/02/07 15:14:33;;;;;;;;;;;16.40;68.30;;;;;;5014261;28;19909;-74
2024/02/07 15:16:59;;;;;;;;;;;16.40;68.50;;;;;;5014324;28;19991;-73
2024/02/07 15:19:25;;;;;;;;;;;16.40;68.40;;;;;;5014046;28;19910;-73